Time;durP1;ratioP1;P1;durP2;ratioP2;P2;SDS_P1;SDS_P2;PMS_P1;PMS_P2;Temp;Humidity;BMP_temperature;BMP_pressure;BME280_temperature;BME280_humidity;BME280_pressure;Samples;Min_cycle;Max_cycle;Signal;HPM_P1;HPM_P2
2023/07/18 00:00:27;;;;;;;3.72;2.80;;;16.90;90.90;;;;;;5129828;28;20470;-70
2023/07/18 00:02:54;;;;;;;5.03;3.20;;;16.90;91.10;;;;;;5130885;28;20416;-71
2023/07/18 00:05:22;;;;;;;4.68;2.72;;;16.80;91.20;;;;;;5115948;28;20513;-69
2023/07/18 00:07:49;;;;;;;5.18;3.10;;;16.80;91.20;;;;;;5107476;28;20421;-70
2023/07/18 00:10:19;;;;;;;4.60;3.10;;;16.70;91.40;;;;;;5107657;28;20417;-69
2023/07/18 00:12:46;;;;;;;4.18;2.70;;;16.70;91.60;;;;;;5108590;28;20417;-70
2023/07/18 00:15:13;;;;;;;3.60;2.60;;;16.60;91.60;;;;;;5108923;28;20417;-69
2023/07/18 00:17:41;;;;;;;5.03;2.90;;;16.60;91.70;;;;;;5107303;28;20417;-69
2023/07/18 00:20:12;;;;;;;3.80;2.97;;;16.50;91.90;;;;;;5099713;28;20435;-71
2023/07/18 00:22:40;;;;;;;3.75;2.92;;;16.60;91.80;;;;;;5108078;28;20664;-70
2023/07/18 00:25:11;;;;;;;4.30;2.90;;;16.50;91.90;;;;;;5106226;28;20493;-69
2023/07/18 00:27:39;;;;;;;4.07;3.33;;;16.40;92.10;;;;;;5106454;28;20409;-69
2023/07/18 00:30:08;;;;;;;3.30;2.70;;;16.40;92.40;;;;;;5105809;28;20486;-71
2023/07/18 00:32:35;;;;;;;4.45;3.20;;;16.40;92.70;;;;;;5106378;28;20809;-70
2023/07/18 00:35:03;;;;;;;4.57;3.00;;;16.40;92.80;;;;;;5118728;28;20430;-69
2023/07/18 00:37:31;;;;;;;4.45;2.92;;;16.40;93.10;;;;;;5126354;28;20438;-70
2023/07/18 00:39:58;;;;;;;4.47;2.90;;;16.30;93.40;;;;;;5126030;27;20411;-70
2023/07/18 00:42:24;;;;;;;4.18;2.60;;;16.30;93.30;;;;;;5126401;28;20407;-70
2023/07/18 00:44:53;;;;;;;4.45;3.22;;;16.20;93.30;;;;;;5125158;28;20419;-70
2023/07/18 00:47:20;;;;;;;4.65;3.05;;;16.20;93.60;;;;;;5111989;28;20412;-69
2023/07/18 00:49:47;;;;;;;4.95;3.00;;;16.20;93.80;;;;;;5109741;28;20789;-70
2023/07/18 00:52:15;;;;;;;6.82;2.90;;;16.10;93.80;;;;;;5104626;28;20457;-70
2023/07/18 00:54:43;;;;;;;4.20;3.03;;;16.10;93.60;;;;;;5112109;28;20774;-70
2023/07/18 00:57:12;;;;;;;4.53;2.88;;;16.10;93.70;;;;;;5112433;28;20404;-70
2023/07/18 00:59:39;;;;;;;4.70;3.20;;;16.10;93.80;;;;;;5104763;28;20420;-70
2023/07/18 01:02:07;;;;;;;3.30;3.00;;;16.10;93.80;;;;;;5111389;28;20426;-69
2023/07/18 01:04:34;;;;;;;4.13;3.00;;;16.00;93.80;;;;;;5109652;28;20412;-69
2023/07/18 01:07:01;;;;;;;5.30;3.10;;;16.00;93.90;;;;;;5109202;28;20416;-69
2023/07/18 01:09:28;;;;;;;3.50;2.80;;;16.00;93.90;;;;;;5111617;28;20416;-69
2023/07/18 01:11:55;;;;;;;4.25;3.05;;;16.00;93.90;;;;;;5112310;28;20879;-71
2023/07/18 01:14:24;;;;;;;3.60;2.90;;;15.90;93.90;;;;;;5112236;28;20453;-69
2023/07/18 01:16:52;;;;;;;4.15;3.20;;;15.90;93.80;;;;;;5104467;28;20428;-70
2023/07/18 01:19:20;;;;;;;3.33;2.70;;;15.90;93.80;;;;;;5103381;28;20422;-70
2023/07/18 01:21:49;;;;;;;3.80;3.03;;;15.90;94.10;;;;;;5110640;28;20946;-70
2023/07/18 01:24:15;;;;;;;3.50;2.88;;;15.80;94.10;;;;;;5112048;28;20415;-69
2023/07/18 01:26:42;;;;;;;5.30;3.20;;;15.80;94.10;;;;;;5112589;28;20404;-70
2023/07/18 01:29:10;;;;;;;4.63;2.90;;;15.80;94.40;;;;;;5112042;28;20435;-69
2023/07/18 01:31:37;;;;;;;3.80;2.90;;;15.80;94.40;;;;;;5112370;28;20412;-70
2023/07/18 01:34:04;;;;;;;4.37;3.20;;;15.80;94.20;;;;;;5113104;22;20457;-68
2023/07/18 01:36:31;;;;;;;3.70;2.92;;;15.80;94.20;;;;;;5042349;28;20496;-68
2023/07/18 01:39:00;;;;;;;4.30;2.80;;;15.70;94.00;;;;;;5046043;28;20508;-68
2023/07/18 01:41:26;;;;;;;5.75;2.80;;;15.70;94.20;;;;;;5050157;28;20428;-68
2023/07/18 01:43:53;;;;;;;3.30;2.85;;;15.70;94.30;;;;;;5049942;28;20418;-69
2023/07/18 01:46:20;;;;;;;3.90;3.00;;;15.70;94.20;;;;;;5050192;28;20425;-68
2023/07/18 01:48:47;;;;;;;3.45;3.03;;;15.60;94.30;;;;;;5040456;28;20456;-68
2023/07/18 01:51:13;;;;;;;6.50;3.40;;;15.60;94.30;;;;;;5046778;28;20502;-68
2023/07/18 01:53:40;;;;;;;3.90;2.60;;;15.60;94.20;;;;;;5043950;28;20907;-67
2023/07/18 01:56:08;;;;;;;3.85;3.05;;;15.60;94.00;;;;;;5041216;28;20429;-67
2023/07/18 01:58:35;;;;;;;3.70;3.08;;;15.60;94.10;;;;;;5048610;28;20413;-68
2023/07/18 02:01:03;;;;;;;3.95;2.70;;;15.50;94.30;;;;;;5049953;28;20863;-68
2023/07/18 02:03:30;;;;;;;3.60;2.70;;;15.50;94.70;;;;;;5050035;28;20444;-68
2023/07/18 02:05:57;;;;;;;4.25;2.97;;;15.50;94.40;;;;;;5048951;28;20432;-67
2023/07/18 02:08:24;;;;;;;3.60;2.90;;;15.40;94.50;;;;;;5041221;28;20424;-68
2023/07/18 02:10:50;;;;;;;4.40;3.00;;;15.40;94.60;;;;;;5049689;28;20448;-68
2023/07/18 02:13:18;;;;;;;5.03;3.17;;;15.40;94.70;;;;;;5049670;28;20424;-68
2023/07/18 02:15:45;;;;;;;3.75;2.90;;;15.30;94.90;;;;;;5049205;28;20455;-68
2023/07/18 02:18:12;;;;;;;4.03;2.80;;;15.30;94.90;;;;;;5049330;28;20413;-68
2023/07/18 02:20:38;;;;;;;5.30;3.33;;;15.30;95.00;;;;;;5045814;28;20432;-68
2023/07/18 02:23:05;;;;;;;4.30;3.22;;;15.30;95.00;;;;;;5035209;28;20438;-68
2023/07/18 02:25:32;;;;;;;3.30;2.72;;;15.30;95.20;;;;;;5049421;28;20740;-68
2023/07/18 02:27:58;;;;;;;5.28;3.10;;;15.20;95.30;;;;;;5049182;28;20895;-68
2023/07/18 02:30:26;;;;;;;3.40;3.10;;;15.30;95.50;;;;;;5049104;28;20413;-68
2023/07/18 02:32:53;;;;;;;4.22;2.90;;;15.20;95.70;;;;;;5049559;28;20413;-68
2023/07/18 02:35:21;;;;;;;4.38;3.40;;;15.20;95.90;;;;;;5047899;28;20439;-68
2023/07/18 02:37:48;;;;;;;4.15;3.10;;;15.30;95.80;;;;;;5040695;28;20861;-68
2023/07/18 02:40:17;;;;;;;3.55;2.75;;;15.30;95.70;;;;;;5049032;28;20420;-68
2023/07/18 02:42:44;;;;;;;4.80;3.17;;;15.30;95.60;;;;;;5049505;28;20410;-67
2023/07/18 02:45:11;;;;;;;4.30;3.17;;;15.20;95.40;;;;;;5048992;28;20441;-68
2023/07/18 02:47:39;;;;;;;3.80;3.30;;;15.20;95.20;;;;;;5048323;28;20504;-69
2023/07/18 02:50:07;;;;;;;3.70;3.10;;;15.10;95.10;;;;;;5045843;28;20513;-67
2023/07/18 02:52:34;;;;;;;5.15;3.67;;;15.10;95.00;;;;;;5041952;28;20424;-68
2023/07/18 02:55:03;;;;;;;4.00;3.20;;;15.10;95.10;;;;;;5048387;28;20899;-68
2023/07/18 02:57:29;;;;;;;3.92;3.33;;;15.00;95.30;;;;;;5048638;28;20422;-68
2023/07/18 02:59:57;;;;;;;3.75;3.35;;;15.00;95.30;;;;;;5048142;28;20413;-68
2023/07/18 03:02:23;;;;;;;4.20;2.87;;;14.90;95.40;;;;;;5049029;28;20525;-68
2023/07/18 03:04:51;;;;;;;5.20;3.40;;;14.90;95.60;;;;;;5047499;28;20802;-68
2023/07/18 03:07:18;;;;;;;4.30;3.20;;;14.90;95.60;;;;;;5039803;28;20436;-68
2023/07/18 03:09:45;;;;;;;4.88;3.50;;;14.90;95.30;;;;;;5047853;28;20417;-68
2023/07/18 03:12:12;;;;;;;4.40;3.20;;;14.80;95.20;;;;;;5048800;28;20409;-68
2023/07/18 03:14:39;;;;;;;4.63;3.40;;;14.80;95.20;;;;;;5048193;28;20418;-68
2023/07/18 03:17:06;;;;;;;3.75;3.00;;;14.80;95.20;;;;;;5048774;28;20413;-67
2023/07/18 03:19:33;;;;;;;4.00;3.60;;;14.80;95.00;;;;;;5047021;28;20803;-67
2023/07/18 03:22:01;;;;;;;4.32;3.33;;;14.80;95.00;;;;;;5047438;28;20417;-68
2023/07/18 03:24:28;;;;;;;4.30;3.38;;;14.80;95.10;;;;;;5040511;28;20420;-68
2023/07/18 03:26:54;;;;;;;4.50;3.30;;;14.70;95.30;;;;;;5048597;28;20877;-67
2023/07/18 03:29:21;;;;;;;5.47;3.55;;;14.70;95.60;;;;;;5047895;28;20424;-68
2023/07/18 03:31:48;;;;;;;6.25;3.45;;;14.70;95.70;;;;;;5048348;28;20413;-68
2023/07/18 03:34:14;;;;;;;4.95;3.22;;;14.70;95.80;;;;;;5045172;28;20441;-68
2023/07/18 03:36:41;;;;;;;5.38;3.38;;;14.70;96.20;;;;;;5042463;28;20806;-68
2023/07/18 03:39:11;;;;;;;4.78;3.20;;;14.70;96.40;;;;;;5047870;28;20432;-68
2023/07/18 03:41:38;;;;;;;4.00;3.60;;;14.70;96.60;;;;;;5048298;28;20464;-68
2023/07/18 03:44:05;;;;;;;5.80;3.50;;;14.60;96.70;;;;;;5048201;28;20524;-67
2023/07/18 03:46:31;;;;;;;5.63;3.22;;;14.60;96.90;;;;;;5048370;28;20417;-67
2023/07/18 03:48:58;;;;;;;5.30;3.60;;;14.60;96.60;;;;;;5046912;28;20444;-67
2023/07/18 03:51:25;;;;;;;4.40;3.65;;;14.60;96.90;;;;;;5039946;28;20420;-67
2023/07/18 03:53:51;;;;;;;4.35;3.40;;;14.50;96.80;;;;;;5048204;28;20429;-68
2023/07/18 03:56:19;;;;;;;5.22;3.53;;;14.50;97.00;;;;;;5048026;28;20432;-68
2023/07/18 03:58:46;;;;;;;5.00;3.67;;;14.50;96.90;;;;;;5047530;28;20848;-68
2023/07/18 04:01:13;;;;;;;5.22;3.42;;;14.50;96.90;;;;;;5048150;28;20425;-68
2023/07/18 04:03:41;;;;;;;5.20;3.20;;;14.50;97.00;;;;;;5047055;28;21012;-68
2023/07/18 04:06:08;;;;;;;5.10;3.33;;;14.50;97.30;;;;;;5047878;28;20413;-67
2023/07/18 04:08:35;;;;;;;4.90;3.50;;;14.50;97.40;;;;;;5047523;28;20505;-67
2023/07/18 04:11:02;;;;;;;4.00;3.50;;;14.50;97.30;;;;;;5048094;28;20405;-67
2023/07/18 04:13:30;;;;;;;3.90;3.40;;;14.50;97.30;;;;;;5048195;28;20787;-67
2023/07/18 04:15:58;;;;;;;4.80;3.40;;;14.50;97.60;;;;;;5047912;28;20436;-68
2023/07/18 04:18:25;;;;;;;5.05;3.90;;;14.40;97.50;;;;;;5046735;28;20436;-68
2023/07/18 04:20:59;;;;;;;4.63;3.55;;;14.40;97.60;;;;;;5040469;28;20887;-68
2023/07/18 04:23:26;;;;;;;4.50;3.50;;;14.40;97.50;;;;;;5032003;28;20754;-67
2023/07/18 04:25:59;;;;;;;4.20;3.80;;;14.40;97.50;;;;;;5031829;28;20407;-68
2023/07/18 04:28:27;;;;;;;5.97;3.50;;;14.50;97.30;;;;;;5031142;28;20825;-68
2023/07/18 04:30:55;;;;;;;9.10;3.65;;;14.50;97.20;;;;;;5031825;28;20406;-67
2023/07/18 04:33:22;;;;;;;5.47;3.60;;;14.40;97.20;;;;;;5039417;28;20431;-68
2023/07/18 04:35:49;;;;;;;7.13;4.10;;;14.50;97.10;;;;;;5046381;28;20429;-67
2023/07/18 04:38:16;;;;;;;4.63;3.50;;;14.50;97.00;;;;;;5051423;28;20879;-68
2023/07/18 04:40:43;;;;;;;4.28;3.72;;;14.50;97.00;;;;;;5044784;28;20442;-68
2023/07/18 04:43:10;;;;;;;5.20;3.92;;;14.40;97.00;;;;;;5049553;28;20424;-67
2023/07/18 04:45:42;;;;;;;4.03;3.50;;;14.40;96.90;;;;;;5051381;28;20783;-67
2023/07/18 04:48:11;;;;;;;5.65;3.50;;;14.50;96.90;;;;;;5047891;28;20438;-68
2023/07/18 04:50:38;;;;;;;4.50;3.20;;;14.40;96.90;;;;;;5037366;28;20533;-68
2023/07/18 04:53:05;;;;;;;4.85;3.50;;;14.50;97.00;;;;;;5048655;28;20433;-67
2023/07/18 04:55:31;;;;;;;4.38;3.60;;;14.50;96.80;;;;;;5051185;28;20820;-68
2023/07/18 04:57:58;;;;;;;3.97;3.35;;;14.50;96.70;;;;;;5051267;28;20417;-68
2023/07/18 05:00:25;;;;;;;4.45;3.60;;;14.50;96.60;;;;;;5051028;28;20469;-68
2023/07/18 05:02:52;;;;;;;4.40;4.00;;;14.50;96.60;;;;;;5040875;28;20463;-68
2023/07/18 05:05:20;;;;;;;5.68;3.85;;;14.50;96.70;;;;;;5042365;28;20425;-68
2023/07/18 05:07:47;;;;;;;4.20;3.60;;;14.50;96.50;;;;;;5050890;28;20467;-68
2023/07/18 05:10:14;;;;;;;5.83;4.10;;;14.40;96.50;;;;;;5050545;28;20988;-68
2023/07/18 05:12:41;;;;;;;5.78;3.55;;;14.50;96.40;;;;;;5041522;28;20433;-68
2023/07/18 05:15:09;;;;;;;4.30;3.65;;;14.50;96.40;;;;;;5050492;28;20424;-68
2023/07/18 05:17:36;;;;;;;4.38;3.50;;;14.60;96.40;;;;;;5050751;28;20444;-68
2023/07/18 05:20:04;;;;;;;4.20;3.80;;;14.60;96.50;;;;;;5037952;28;20434;-68
2023/07/18 05:22:32;;;;;;;8.37;3.93;;;14.60;96.40;;;;;;5050796;28;20579;-68
2023/07/18 05:25:00;;;;;;;4.97;3.63;;;14.70;96.10;;;;;;5050778;28;20424;-68
2023/07/18 05:27:27;;;;;;;5.85;4.00;;;14.70;95.90;;;;;;5041668;28;20972;-68
2023/07/18 05:29:55;;;;;;;4.30;3.80;;;14.70;95.50;;;;;;5050124;28;20428;-67
2023/07/18 05:32:22;;;;;;;4.63;3.70;;;14.80;95.70;;;;;;5050579;28;20456;-68
2023/07/18 05:34:49;;;;;;;4.17;3.60;;;14.80;95.60;;;;;;5042366;28;20506;-68
2023/07/18 05:37:16;;;;;;;5.82;3.90;;;14.80;95.30;;;;;;5048948;28;20532;-68
2023/07/18 05:39:44;;;;;;;8.20;4.25;;;14.80;95.90;;;;;;5049692;28;20470;-68
2023/07/18 05:42:11;;;;;;;4.45;3.75;;;14.80;94.90;;;;;;5047834;28;20915;-68
2023/07/18 05:44:38;;;;;;;4.57;3.42;;;14.90;94.90;;;;;;5043304;28;20425;-68
2023/07/18 05:47:06;;;;;;;4.65;3.70;;;14.90;94.80;;;;;;5050116;28;20488;-68
2023/07/18 05:49:32;;;;;;;5.30;3.42;;;15.00;94.70;;;;;;5044476;28;20451;-68
2023/07/18 05:51:59;;;;;;;7.50;4.15;;;15.00;94.60;;;;;;5046324;28;20791;-68
2023/07/18 05:54:26;;;;;;;5.50;3.88;;;15.10;94.40;;;;;;5050170;28;20600;-68
2023/07/18 05:56:54;;;;;;;3.90;3.30;;;15.20;94.30;;;;;;5049871;28;20425;-68
2023/07/18 05:59:21;;;;;;;6.22;3.70;;;15.20;94.40;;;;;;5045735;28;20440;-68
2023/07/18 06:01:47;;;;;;;5.45;4.10;;;15.20;94.10;;;;;;5044417;28;20477;-69
2023/07/18 06:04:15;;;;;;;5.10;3.90;;;15.30;93.60;;;;;;5047008;28;20429;-68
2023/07/18 06:06:42;;;;;;;5.95;4.00;;;15.40;93.40;;;;;;5043699;28;20503;-68
2023/07/18 06:09:09;;;;;;;6.88;3.70;;;15.40;93.30;;;;;;5049148;28;20413;-67
2023/07/18 06:11:35;;;;;;;4.43;3.60;;;15.50;93.50;;;;;;5049575;28;20416;-68
2023/07/18 06:14:05;;;;;;;4.18;3.55;;;15.50;93.20;;;;;;5049317;28;20879;-68
2023/07/18 06:16:32;;;;;;;5.80;3.80;;;15.60;93.00;;;;;;5043929;28;20846;-68
2023/07/18 06:18:59;;;;;;;5.90;4.10;;;15.60;92.90;;;;;;5043695;28;20413;-68
2023/07/18 06:21:26;;;;;;;4.97;3.70;;;15.60;92.60;;;;;;5040751;28;20508;-68
2023/07/18 06:23:53;;;;;;;5.63;3.90;;;15.70;92.30;;;;;;5048726;28;20425;-68
2023/07/18 06:26:20;;;;;;;4.88;4.00;;;15.80;92.20;;;;;;5048974;28;20808;-68
2023/07/18 06:28:46;;;;;;;5.85;3.90;;;15.80;92.00;;;;;;5048845;28;20440;-68
2023/07/18 06:31:15;;;;;;;6.35;4.03;;;15.90;91.80;;;;;;5048938;28;20914;-68
2023/07/18 06:33:41;;;;;;;5.78;3.85;;;16.00;91.40;;;;;;5042466;28;20493;-68
2023/07/18 06:36:08;;;;;;;5.43;3.75;;;16.00;91.30;;;;;;5037070;28;20439;-68
2023/07/18 06:38:35;;;;;;;4.32;3.30;;;16.10;90.60;;;;;;5048265;28;20421;-68
2023/07/18 06:41:02;;;;;;;4.10;3.58;;;16.20;89.90;;;;;;5049098;28;20440;-68
2023/07/18 06:43:29;;;;;;;5.20;3.30;;;16.30;90.00;;;;;;5048237;28;20428;-68
2023/07/18 06:45:55;;;;;;;5.60;3.10;;;16.40;90.20;;;;;;5048481;28;20413;-68
2023/07/18 06:48:24;;;;;;;3.95;3.00;;;16.50;90.10;;;;;;5039390;28;20472;-68
2023/07/18 06:50:52;;;;;;;3.60;2.90;;;16.70;89.10;;;;;;5045139;28;20459;-68
2023/07/18 06:53:20;;;;;;;4.55;2.95;;;16.90;87.50;;;;;;5040147;28;20413;-67
2023/07/18 06:55:48;;;;;;;3.35;2.88;;;17.00;86.30;;;;;;5048664;28;20441;-67
2023/07/18 06:58:15;;;;;;;5.25;3.40;;;17.10;85.90;;;;;;5048221;28;20495;-67
2023/07/18 07:00:42;;;;;;;4.63;3.40;;;17.30;84.80;;;;;;5048675;28;20412;-67
2023/07/18 07:03:09;;;;;;;4.47;3.13;;;17.30;83.80;;;;;;5048876;28;20439;-67
2023/07/18 07:05:38;;;;;;;6.70;3.35;;;17.40;82.90;;;;;;5039059;28;20467;-67
2023/07/18 07:08:05;;;;;;;4.40;3.50;;;17.50;83.00;;;;;;5048547;28;20409;-68
2023/07/18 07:10:33;;;;;;;4.10;2.90;;;17.60;82.90;;;;;;5043485;28;20792;-68
2023/07/18 07:12:59;;;;;;;4.55;2.88;;;17.70;82.00;;;;;;5044716;28;20453;-67
2023/07/18 07:15:26;;;;;;;3.92;3.10;;;17.80;79.60;;;;;;5047160;28;20440;-67
2023/07/18 07:17:53;;;;;;;4.43;2.50;;;18.00;79.10;;;;;;5048093;28;20433;-68
2023/07/18 07:20:20;;;;;;;4.70;3.10;;;18.10;78.60;;;;;;5038889;28;20442;-68
2023/07/18 07:22:48;;;;;;;4.10;2.70;;;18.30;78.00;;;;;;5048241;28;20507;-68
2023/07/18 07:25:15;;;;;;;5.03;3.13;;;18.50;77.40;;;;;;5048235;28;20413;-68
2023/07/18 07:27:44;;;;;;;4.95;3.20;;;18.70;75.90;;;;;;5048564;28;20440;-68
2023/07/18 07:30:15;;;;;;;3.85;2.60;;;18.90;74.90;;;;;;5037717;28;20435;-67
2023/07/18 07:32:41;;;;;;;3.40;2.80;;;19.00;73.40;;;;;;5042024;28;20425;-68
2023/07/18 07:35:09;;;;;;;4.70;2.80;;;19.20;73.20;;;;;;5060393;23;20441;-70
2023/07/18 07:37:36;;;;;;;4.25;2.60;;;19.30;72.00;;;;;;5062775;28;20978;-71
2023/07/18 07:40:06;;;;;;;4.60;2.60;;;19.40;71.40;;;;;;5066945;28;20499;-71
2023/07/18 07:42:33;;;;;;;4.25;2.60;;;19.50;69.60;;;;;;5074818;28;20473;-71
2023/07/18 07:45:00;;;;;;;4.30;2.70;;;19.50;69.60;;;;;;5066977;28;20441;-71
2023/07/18 07:47:26;;;;;;;3.90;2.37;;;19.60;68.80;;;;;;5063492;28;20802;-71
2023/07/18 07:49:53;;;;;;;4.00;2.30;;;19.60;68.30;;;;;;5062720;28;20437;-71
2023/07/18 07:52:20;;;;;;;3.60;2.10;;;19.70;67.60;;;;;;5060013;28;20807;-70
2023/07/18 07:54:48;;;;;;;3.17;2.13;;;19.80;67.00;;;;;;5069506;28;20449;-70
2023/07/18 07:57:16;;;;;;;3.70;2.28;;;20.00;65.60;;;;;;5072878;28;20800;-69
2023/07/18 07:59:44;;;;;;;2.55;2.10;;;20.20;64.80;;;;;;5073197;28;20419;-70
2023/07/18 08:02:12;;;;;;;4.20;1.90;;;20.30;63.60;;;;;;5064981;28;20441;-70
2023/07/18 08:04:41;;;;;;;2.40;2.00;;;20.40;63.10;;;;;;5062010;28;20412;-68
2023/07/18 08:07:08;;;;;;;4.20;2.10;;;20.60;62.00;;;;;;5064063;28;20913;-71
2023/07/18 08:09:36;;;;;;;3.20;1.80;;;20.60;59.90;;;;;;5065058;28;20415;-70
2023/07/18 08:12:03;;;;;;;2.90;1.70;;;20.70;59.30;;;;;;5073640;28;20893;-71
2023/07/18 08:14:32;;;;;;;2.80;1.40;;;20.90;57.80;;;;;;5073308;28;20802;-69
2023/07/18 08:16:59;;;;;;;2.20;1.50;;;21.00;56.90;;;;;;5064665;28;20495;-71
2023/07/18 08:19:26;;;;;;;2.72;1.30;;;21.20;56.30;;;;;;5063856;28;20418;-70
2023/07/18 08:21:53;;;;;;;2.75;1.60;;;21.30;54.40;;;;;;5061745;28;20896;-70
2023/07/18 08:24:20;;;;;;;3.60;1.70;;;21.40;54.70;;;;;;5071390;28;20490;-70
2023/07/18 08:26:47;;;;;;;3.13;1.52;;;21.50;54.50;;;;;;5073105;28;20400;-71
2023/07/18 08:29:13;;;;;;;2.65;1.73;;;21.60;52.40;;;;;;5072429;28;20509;-71
2023/07/18 08:31:42;;;;;;;4.00;1.60;;;21.80;51.40;;;;;;5067854;28;20435;-69
2023/07/18 08:34:08;;;;;;;4.50;2.00;;;21.70;52.40;;;;;;5055526;28;20417;-71
2023/07/18 08:36:35;;;;;;;3.40;1.80;;;21.70;53.60;;;;;;5059608;28;20453;-70
2023/07/18 08:39:02;;;;;;;2.25;1.77;;;21.60;54.00;;;;;;5059362;28;20455;-70
2023/07/18 08:41:29;;;;;;;2.50;1.65;;;21.70;53.70;;;;;;5033051;28;20414;-70
2023/07/18 08:43:58;;;;;;;3.55;1.90;;;21.80;54.30;;;;;;5033026;28;20505;-70
2023/07/18 08:46:26;;;;;;;3.15;1.85;;;21.90;54.00;;;;;;5045083;28;20436;-70
2023/07/18 08:48:55;;;;;;;3.33;2.17;;;22.10;53.30;;;;;;5063562;28;20435;-70
2023/07/18 08:51:22;;;;;;;2.70;1.80;;;22.30;53.10;;;;;;5054950;28;20433;-70
2023/07/18 08:53:48;;;;;;;3.20;1.80;;;22.50;52.10;;;;;;5063444;28;20459;-70
2023/07/18 08:56:15;;;;;;;4.25;1.80;;;22.60;51.40;;;;;;5072065;28;20851;-69
2023/07/18 08:58:42;;;;;;;3.40;1.90;;;22.70;50.90;;;;;;5071976;28;20440;-70
2023/07/18 09:01:09;;;;;;;3.55;2.00;;;22.80;50.30;;;;;;5058327;28;20519;-71
2023/07/18 09:03:36;;;;;;;2.60;1.70;;;22.90;49.50;;;;;;5059537;28;20428;-70
2023/07/18 09:06:16;;;;;;;3.50;1.70;;;23.00;47.40;;;;;;5051016;28;20532;-70
2023/07/18 09:08:43;;;;;;;3.72;1.80;;;23.10;48.20;;;;;;5053276;28;20416;-71
2023/07/18 09:11:12;;;;;;;3.75;1.73;;;23.20;46.00;;;;;;5052326;28;20413;-70
2023/07/18 09:13:40;;;;;;;2.40;1.60;;;23.30;46.00;;;;;;5052186;28;20445;-70
2023/07/18 09:16:18;;;;;;;2.60;1.50;;;23.40;45.80;;;;;;5051156;28;20455;-70
2023/07/18 09:18:48;;;;;;;2.78;1.50;;;23.60;44.70;;;;;;5061488;28;20481;-71
2023/07/18 09:21:16;;;;;;;3.55;1.80;;;23.80;45.20;;;;;;5054332;28;20456;-71
2023/07/18 09:23:44;;;;;;;2.60;1.70;;;23.90;45.70;;;;;;5063531;28;20419;-70
2023/07/18 09:26:13;;;;;;;3.20;1.88;;;24.00;44.60;;;;;;5071874;28;20412;-70
2023/07/18 09:28:41;;;;;;;2.80;2.13;;;24.20;44.80;;;;;;5071418;28;20410;-70
2023/07/18 09:31:18;;;;;;;2.88;1.90;;;24.30;44.30;;;;;;5071444;28;20422;-71
2023/07/18 09:33:46;;;;;;;2.00;1.50;;;24.40;43.20;;;;;;5065445;28;20558;-70
2023/07/18 09:36:18;;;;;;;4.13;2.35;;;24.40;43.10;;;;;;5057853;28;20533;-71
2023/07/18 09:38:46;;;;;;;2.40;1.90;;;24.50;43.40;;;;;;5059114;28;20429;-70
2023/07/18 09:41:14;;;;;;;4.10;1.70;;;24.50;42.80;;;;;;5060221;28;20432;-71
2023/07/18 09:43:43;;;;;;;3.40;1.80;;;24.50;42.10;;;;;;5071383;28;20434;-70
2023/07/18 09:46:13;;;;;;;3.42;1.80;;;24.30;43.00;;;;;;5071274;28;20443;-70
2023/07/18 09:48:40;;;;;;;3.10;1.90;;;24.20;41.40;;;;;;5071022;28;20507;-71
2023/07/18 09:51:09;;;;;;;3.15;1.77;;;24.20;41.90;;;;;;5070511;28;20442;-71
2023/07/18 09:53:40;;;;;;;3.70;1.80;;;24.30;42.60;;;;;;5059156;28;20460;-71
2023/07/18 09:56:09;;;;;;;3.37;1.90;;;24.60;42.50;;;;;;5067070;28;20924;-70
2023/07/18 09:58:39;;;;;;;3.40;2.00;;;25.00;41.50;;;;;;5070245;28;20436;-70
2023/07/18 10:01:09;;;;;;;2.70;1.95;;;25.40;40.90;;;;;;5070631;28;20465;-70
2023/07/18 10:03:38;;;;;;;3.00;1.90;;;25.70;40.80;;;;;;5070470;28;21005;-71
2023/07/18 10:06:10;;;;;;;2.63;1.50;;;26.10;40.00;;;;;;5064368;28;20433;-71
2023/07/18 10:08:39;;;;;;;3.10;1.60;;;26.30;36.40;;;;;;5058641;28;20437;-70
2023/07/18 10:11:08;;;;;;;2.60;1.60;;;26.30;35.10;;;;;;5050985;28;20413;-70
2023/07/18 10:13:41;;;;;;;2.85;1.70;;;26.20;35.60;;;;;;5051216;28;20467;-70
2023/07/18 10:16:19;;;;;;;2.87;1.70;;;26.10;35.60;;;;;;5050533;28;20413;-72
2023/07/18 10:18:45;;;;;;;2.50;1.70;;;25.90;35.30;;;;;;5049225;28;20482;-70
2023/07/18 10:21:13;;;;;;;3.10;1.83;;;25.70;35.00;;;;;;5050280;28;20897;-70
2023/07/18 10:23:43;;;;;;;3.20;1.80;;;25.40;36.70;;;;;;5061727;28;20414;-70
2023/07/18 10:26:10;;;;;;;2.65;1.65;;;25.30;37.10;;;;;;5070125;28;20858;-70
2023/07/18 10:28:44;;;;;;;4.20;1.90;;;25.20;37.40;;;;;;5070079;28;20407;-70
2023/07/18 10:31:27;;;;;;;2.83;1.60;;;25.10;37.70;;;;;;5070132;28;20777;-71
2023/07/18 10:34:06;;;;;;;5.28;1.80;;;25.10;38.20;;;;;;5070225;28;20412;-70
2023/07/18 10:36:34;;;;;;;2.40;1.50;;;25.40;37.70;;;;;;5061391;28;20427;-70
2023/07/18 10:39:07;;;;;;;2.53;1.65;;;25.70;37.30;;;;;;5061097;28;20435;-70
2023/07/18 10:41:34;;;;;;;3.83;1.80;;;25.80;36.30;;;;;;5062276;28;20432;-71
2023/07/18 10:44:01;;;;;;;3.22;2.08;;;25.80;36.70;;;;;;5058170;28;20878;-71
2023/07/18 10:46:36;;;;;;;3.95;1.98;;;25.80;37.70;;;;;;5069523;28;20412;-70
2023/07/18 10:49:03;;;;;;;2.45;1.80;;;25.90;36.80;;;;;;5069276;28;20415;-71
2023/07/18 10:51:30;;;;;;;3.00;1.95;;;25.80;36.90;;;;;;5063352;28;20489;-71
2023/07/18 10:53:58;;;;;;;3.80;1.90;;;25.70;36.40;;;;;;5063177;28;20422;-70
2023/07/18 10:56:27;;;;;;;3.13;1.90;;;25.60;37.30;;;;;;5070174;28;20893;-70
2023/07/18 10:58:56;;;;;;;3.33;1.88;;;25.80;37.20;;;;;;5069419;28;20428;-71
2023/07/18 11:01:25;;;;;;;5.18;2.10;;;26.20;35.80;;;;;;5069751;28;20411;-69
2023/07/18 11:03:52;;;;;;;2.70;2.03;;;26.40;35.70;;;;;;5070405;28;20420;-71
2023/07/18 11:06:21;;;;;;;4.20;1.80;;;26.70;35.80;;;;;;5058018;28;20433;-70
2023/07/18 11:08:48;;;;;;;3.80;1.85;;;27.10;34.70;;;;;;5061038;28;20488;-70
2023/07/18 11:11:18;;;;;;;2.55;1.90;;;27.10;34.40;;;;;;5066780;28;20461;-70
2023/07/18 11:13:46;;;;;;;3.38;1.80;;;26.90;34.50;;;;;;5057710;28;20515;-71
2023/07/18 11:16:15;;;;;;;4.28;2.00;;;26.80;35.80;;;;;;5066699;28;20426;-69
2023/07/18 11:18:46;;;;;;;2.80;1.83;;;26.80;35.30;;;;;;5069172;28;20427;-71
2023/07/18 11:21:14;;;;;;;4.57;2.03;;;26.80;35.00;;;;;;5066759;28;20438;-70
2023/07/18 11:23:42;;;;;;;2.00;1.80;;;26.90;34.70;;;;;;5062614;28;20533;-71
2023/07/18 11:26:12;;;;;;;4.50;1.75;;;27.10;35.40;;;;;;5063432;28;20432;-70
2023/07/18 11:28:39;;;;;;;2.40;1.70;;;27.40;34.80;;;;;;5060520;28;20850;-71
2023/07/18 11:31:07;;;;;;;3.00;1.80;;;27.70;33.50;;;;;;5069756;28;20412;-71
2023/07/18 11:33:34;;;;;;;2.47;1.80;;;27.90;33.50;;;;;;5069320;28;20446;-70
2023/07/18 11:36:01;;;;;;;2.80;1.67;;;28.10;33.30;;;;;;5056928;28;20425;-70
2023/07/18 11:38:29;;;;;;;3.70;1.90;;;28.40;32.60;;;;;;5063706;28;20463;-70
2023/07/18 11:40:57;;;;;;;4.53;1.90;;;28.40;31.70;;;;;;5057685;28;20436;-70
2023/07/18 11:43:29;;;;;;;3.88;1.90;;;28.10;32.60;;;;;;5067759;28;20602;-70
2023/07/18 11:45:56;;;;;;;2.55;1.88;;;27.70;33.00;;;;;;5069283;28;20895;-71
2023/07/18 11:48:27;;;;;;;3.28;1.73;;;27.30;33.80;;;;;;5069420;28;20435;-71
2023/07/18 11:50:54;;;;;;;3.00;2.00;;;27.10;34.40;;;;;;5053426;28;20465;-71
2023/07/18 11:53:27;;;;;;;3.38;2.00;;;27.10;34.30;;;;;;5056306;28;20451;-70
2023/07/18 11:55:55;;;;;;;2.67;1.90;;;27.00;34.30;;;;;;5064486;28;20416;-70
2023/07/18 11:58:22;;;;;;;3.33;2.13;;;27.00;34.50;;;;;;5068623;28;20423;-71
2023/07/18 12:00:48;;;;;;;3.78;2.05;;;27.00;35.00;;;;;;5069033;28;20408;-71
2023/07/18 12:03:15;;;;;;;4.20;2.75;;;27.30;34.50;;;;;;5069618;28;20898;-70
2023/07/18 12:05:43;;;;;;;4.45;1.80;;;27.70;34.80;;;;;;5060139;28;20429;-69
2023/07/18 12:08:10;;;;;;;3.25;1.70;;;28.20;33.30;;;;;;5066051;28;20407;-70
2023/07/18 12:10:36;;;;;;;2.38;2.10;;;28.70;33.20;;;;;;5069146;28;20416;-70
2023/07/18 12:13:03;;;;;;;2.60;1.75;;;29.20;32.50;;;;;;5069390;28;20890;-71
2023/07/18 12:15:30;;;;;;;2.22;1.50;;;29.70;30.80;;;;;;5069315;28;20419;-71
2023/07/18 12:17:57;;;;;;;1.88;1.70;;;30.00;31.30;;;;;;5069227;28;20438;-70
2023/07/18 12:20:25;;;;;;;3.00;1.48;;;30.30;30.90;;;;;;5056971;28;20439;-71
2023/07/18 12:22:53;;;;;;;3.90;2.10;;;30.80;30.30;;;;;;5057132;28;20784;-71
2023/07/18 12:25:21;;;;;;;3.22;1.63;;;31.30;30.10;;;;;;5067308;28;20412;-70
2023/07/18 12:27:48;;;;;;;2.80;1.80;;;31.70;29.50;;;;;;5069241;28;20433;-71
2023/07/18 12:30:15;;;;;;;2.40;1.60;;;32.00;28.70;;;;;;5068702;28;20428;-70
2023/07/18 12:32:42;;;;;;;1.55;1.40;;;32.10;27.90;;;;;;5069493;28;20408;-71
2023/07/18 12:35:09;;;;;;;2.60;1.40;;;32.10;28.50;;;;;;5061691;28;20431;-71
2023/07/18 12:37:36;;;;;;;1.83;1.43;;;32.20;27.70;;;;;;5060943;28;20431;-70
2023/07/18 12:40:05;;;;;;;1.70;1.60;;;31.80;27.20;;;;;;5068626;28;20419;-69
2023/07/18 12:42:31;;;;;;;2.33;1.70;;;31.60;26.90;;;;;;5071217;28;20415;-70
2023/07/18 12:44:58;;;;;;;2.50;1.70;;;31.50;27.70;;;;;;5072678;28;20730;-70
2023/07/18 12:47:25;;;;;;;1.90;1.53;;;31.30;27.40;;;;;;5072553;28;20408;-70
2023/07/18 12:49:51;;;;;;;2.20;1.35;;;31.20;27.60;;;;;;5062200;28;20423;-70